METARs

EEEI - Ämari Air Base

EEEI 111650Z 01006KT 9999 -RA BKN006 OVC009 01/01 Q1017 R06/2900

EEKA - Kärdla

EEKA 111550Z 02012KT 9999 FEW015 OVC035 03/01 Q1017

EEKE - Kuressaare

EEKE 111850Z AUTO 02007KT 9999NDV -RA BKN008 OVC035 02/01 Q1018

EEPU - Pärnu

EEPU 111350Z 36005KT 3600 BR SCT006 OVC018 01/01 Q1013

EETN - Lennart Meri Tallinn

EETN 111850Z 04008KT 9999 BKN010 OVC016 02/00 Q1018 R08/290195 N

EETU - Tartu

EETU 111850Z AUTO 36003KT 330V030 1900 UP OVC002/// 00/00 Q1016

Sign In

ATC Booking

currently no ATC Bookings...